createdAt,value
2023-07-18T00:01:16.536Z,1.35
2023-07-18T00:03:43.622Z,1.27
2023-07-18T00:06:10.822Z,1.20
2023-07-18T00:08:38.259Z,1.00
2023-07-18T00:11:07.712Z,1.40
2023-07-18T00:13:34.993Z,1.15
2023-07-18T00:16:01.874Z,1.10
2023-07-18T00:18:28.966Z,1.63
2023-07-18T00:20:58.329Z,1.27
2023-07-18T00:23:25.643Z,1.00
2023-07-18T00:25:54.903Z,1.00
2023-07-18T00:28:21.954Z,1.10
2023-07-18T00:30:50.779Z,1.13
2023-07-18T00:33:21.894Z,1.35
2023-07-18T00:35:51.940Z,1.30
2023-07-18T00:38:21.572Z,1.20
2023-07-18T00:40:49.637Z,1.23
2023-07-18T00:43:18.776Z,1.05
2023-07-18T00:45:50.419Z,1.15
2023-07-18T00:48:18.875Z,1.23
2023-07-18T00:50:46.093Z,1.33
2023-07-18T00:53:13.961Z,1.48
2023-07-18T00:55:41.486Z,1.55
2023-07-18T00:58:09.490Z,1.92
2023-07-18T01:00:36.666Z,1.08
2023-07-18T01:03:03.815Z,1.63
2023-07-18T01:05:31.585Z,1.20
2023-07-18T01:07:58.594Z,1.73
2023-07-18T01:10:27.673Z,0.90
2023-07-18T01:12:56.360Z,0.90
2023-07-18T01:15:28.083Z,1.20
2023-07-18T01:17:55.151Z,1.40
2023-07-18T01:20:28.854Z,1.50
2023-07-18T01:23:01.754Z,1.23
2023-07-18T01:25:29.267Z,1.30
2023-07-18T01:27:58.140Z,1.50
2023-07-18T01:30:27.175Z,0.90
2023-07-18T01:32:55.218Z,1.30
2023-07-18T01:35:27.311Z,1.45
2023-07-18T01:37:55.964Z,1.25
2023-07-18T01:40:23.753Z,1.35
2023-07-18T01:42:52.812Z,1.30
2023-07-18T01:45:24.956Z,1.45
2023-07-18T01:47:53.035Z,1.65
2023-07-18T01:50:20.535Z,1.80
2023-07-18T01:52:49.026Z,1.95
2023-07-18T01:55:16.956Z,1.17
2023-07-18T01:57:47.121Z,1.30
2023-07-18T02:00:23.228Z,1.40
2023-07-18T02:02:53.044Z,1.58
2023-07-18T02:05:23.389Z,1.30
2023-07-18T02:07:50.761Z,1.75
2023-07-18T02:10:23.138Z,1.20
2023-07-18T02:12:51.692Z,1.45
2023-07-18T02:15:19.970Z,1.80
2023-07-18T02:17:47.452Z,1.55
2023-07-18T02:20:16.780Z,1.92
2023-07-18T02:22:45.925Z,1.55
2023-07-18T02:25:13.754Z,1.58
2023-07-18T02:27:42.120Z,1.40
2023-07-18T02:30:11.235Z,2.13
2023-07-18T02:32:40.245Z,2.45
2023-07-18T02:35:09.174Z,1.50
2023-07-18T02:37:37.927Z,1.42
2023-07-18T02:40:14.463Z,1.70
2023-07-18T02:42:41.442Z,1.60
2023-07-18T02:45:11.800Z,1.42
2023-07-18T02:47:39.976Z,1.83
2023-07-18T02:50:08.404Z,1.58
2023-07-18T02:52:37.347Z,1.60
2023-07-18T02:55:04.920Z,1.52
2023-07-18T02:57:32.767Z,1.35
2023-07-18T03:00:00.468Z,1.40
2023-07-18T03:02:30.121Z,1.40
2023-07-18T03:04:57.743Z,1.58
2023-07-18T03:07:24.832Z,2.00
2023-07-18T03:09:51.848Z,1.60
2023-07-18T03:12:18.814Z,1.70
2023-07-18T03:14:45.856Z,1.73
2023-07-18T03:17:12.850Z,1.67
2023-07-18T03:19:39.765Z,1.48
2023-07-18T03:22:06.760Z,1.60
2023-07-18T03:24:35.758Z,1.70
2023-07-18T03:27:04.415Z,1.70
2023-07-18T03:29:33.079Z,2.00
2023-07-18T03:32:02.189Z,1.88
2023-07-18T03:34:29.960Z,2.00
2023-07-18T03:36:57.028Z,1.90
2023-07-18T03:39:24.125Z,2.20
2023-07-18T03:41:51.049Z,1.92
2023-07-18T03:44:18.277Z,1.98
2023-07-18T03:46:45.245Z,2.00
2023-07-18T03:49:12.153Z,1.80
2023-07-18T03:51:40.099Z,1.60
2023-07-18T03:54:07.103Z,2.10
2023-07-18T04:02:12.076Z,1.42
2023-07-18T04:04:39.162Z,1.92
2023-07-18T04:07:07.219Z,1.90
2023-07-18T04:09:35.738Z,2.22
2023-07-18T04:12:02.671Z,2.03
2023-07-18T04:14:29.676Z,2.20
2023-07-18T04:16:56.648Z,1.90
2023-07-18T04:19:23.530Z,2.70
2023-07-18T04:21:50.457Z,1.58
2023-07-18T04:24:17.489Z,2.72
2023-07-18T04:26:44.512Z,1.90
2023-07-18T04:29:11.474Z,2.17
2023-07-18T04:31:38.376Z,2.00
2023-07-18T04:34:06.331Z,2.03
2023-07-18T04:36:34.304Z,1.90
2023-07-18T04:39:01.459Z,2.00
2023-07-18T04:41:34.999Z,1.77
2023-07-18T04:44:08.529Z,1.63
2023-07-18T04:46:35.708Z,1.77
2023-07-18T04:49:02.836Z,2.13
2023-07-18T04:51:29.783Z,2.22
2023-07-18T04:53:57.305Z,2.15
2023-07-18T04:56:24.308Z,2.25
2023-07-18T04:58:51.233Z,2.88
2023-07-18T05:01:18.505Z,1.85
2023-07-18T05:03:57.291Z,1.98
2023-07-18T05:06:25.484Z,1.80
2023-07-18T05:08:52.401Z,2.30
2023-07-18T05:11:19.654Z,2.58
2023-07-18T05:13:46.772Z,2.05
2023-07-18T05:16:14.058Z,2.45
2023-07-18T05:18:41.127Z,2.47
2023-07-18T05:21:08.866Z,1.80
2023-07-18T05:23:35.870Z,2.22
2023-07-18T05:26:05.274Z,1.98
2023-07-18T05:28:32.256Z,2.05
2023-07-18T05:30:59.295Z,1.65
2023-07-18T05:33:26.224Z,2.00
2023-07-18T05:35:53.203Z,1.98
2023-07-18T05:38:20.200Z,2.00
2023-07-18T05:40:47.188Z,1.88
2023-07-18T05:43:15.459Z,1.60
2023-07-18T05:45:42.454Z,2.22
2023-07-18T05:48:10.031Z,2.00
2023-07-18T05:50:37.037Z,1.98
2023-07-18T05:53:04.068Z,1.63
2023-07-18T05:55:31.492Z,1.75
2023-07-18T05:57:58.512Z,1.75
2023-07-18T06:00:25.475Z,1.67
2023-07-18T06:02:53.348Z,2.10
2023-07-18T06:05:21.273Z,2.10
2023-07-18T06:07:48.246Z,1.50
2023-07-18T06:10:15.211Z,1.50
2023-07-18T06:12:42.536Z,1.70
2023-07-18T06:15:12.569Z,1.63
2023-07-18T06:17:39.710Z,1.77
2023-07-18T06:20:14.023Z,1.90
2023-07-18T06:22:47.766Z,2.42
2023-07-18T06:25:16.940Z,3.30
2023-07-18T06:27:43.925Z,2.70
2023-07-18T06:30:11.330Z,3.00
2023-07-18T06:32:41.191Z,2.58
2023-07-18T06:37:43.054Z,3.53
2023-07-18T06:40:12.817Z,3.50
2023-07-18T06:42:43.130Z,2.80
2023-07-18T06:45:11.924Z,2.65
2023-07-18T06:47:38.938Z,1.55
2023-07-18T06:50:06.412Z,1.98
2023-07-18T06:52:36.379Z,1.40
2023-07-18T06:55:04.972Z,1.75
2023-07-18T06:57:31.936Z,2.35
2023-07-18T06:59:58.897Z,1.33
2023-07-18T07:02:27.340Z,3.10
2023-07-18T07:04:54.343Z,4.20
2023-07-18T07:07:21.326Z,1.92
2023-07-18T07:09:48.270Z,1.70
2023-07-18T07:12:26.214Z,1.55
2023-07-18T07:14:57.926Z,1.75
2023-07-18T07:17:25.161Z,3.17
2023-07-18T07:19:52.137Z,3.22
2023-07-18T07:22:19.701Z,1.52
2023-07-18T07:24:48.673Z,1.35
2023-07-18T07:27:16.401Z,0.93
2023-07-18T07:29:43.302Z,0.65
2023-07-18T07:32:10.312Z,0.75
2023-07-18T07:34:39.447Z,0.50
2023-07-18T07:37:10.249Z,0.50
2023-07-18T07:39:37.330Z,0.65
2023-07-18T07:42:04.452Z,0.70
2023-07-18T07:44:31.595Z,0.90
2023-07-18T07:46:58.715Z,0.80
2023-07-18T07:49:25.838Z,1.00
2023-07-18T07:51:52.858Z,1.00
2023-07-18T07:54:19.900Z,0.60
2023-07-18T07:56:47.499Z,0.70
2023-07-18T07:59:14.391Z,0.88
2023-07-18T08:01:41.555Z,0.70
2023-07-18T08:04:10.928Z,1.00
2023-07-18T08:06:38.001Z,0.75
2023-07-18T08:09:06.050Z,0.75
2023-07-18T08:11:33.113Z,0.70
2023-07-18T08:14:00.093Z,0.70
2023-07-18T08:16:28.099Z,0.90
2023-07-18T08:18:55.402Z,0.80
2023-07-18T08:21:23.018Z,1.17
2023-07-18T08:23:50.328Z,0.82
2023-07-18T08:26:17.370Z,1.00
2023-07-18T08:28:44.309Z,0.82
2023-07-18T08:31:11.375Z,0.90
2023-07-18T08:33:38.521Z,1.02
2023-07-18T08:36:05.648Z,1.00
2023-07-18T08:38:32.693Z,1.00
2023-07-18T08:40:59.798Z,1.00
2023-07-18T08:43:27.646Z,0.90
2023-07-18T08:45:56.785Z,1.05
2023-07-18T08:48:25.210Z,0.68
2023-07-18T08:50:54.988Z,1.20
2023-07-18T08:53:22.533Z,1.05
2023-07-18T08:55:50.919Z,0.90
2023-07-18T08:58:19.720Z,1.00
2023-07-18T09:00:48.510Z,0.85
2023-07-18T09:03:17.098Z,0.90
2023-07-18T09:05:44.131Z,0.90
2023-07-18T09:08:11.446Z,1.17
2023-07-18T09:10:38.424Z,1.10
2023-07-18T09:13:08.678Z,1.00
2023-07-18T09:15:37.429Z,1.20
2023-07-18T09:18:14.217Z,1.25
2023-07-18T09:20:41.290Z,1.00
2023-07-18T09:23:08.208Z,1.25
2023-07-18T09:25:42.024Z,0.88
2023-07-18T09:28:13.445Z,0.93
2023-07-18T09:30:40.932Z,1.15
2023-07-18T09:33:08.082Z,1.02
2023-07-18T09:35:39.927Z,1.00
2023-07-18T09:38:10.286Z,0.90
2023-07-18T09:40:39.453Z,0.73
2023-07-18T09:43:07.477Z,1.40
2023-07-18T09:45:35.952Z,1.27
2023-07-18T09:48:04.864Z,0.98
2023-07-18T09:50:35.807Z,1.10
2023-07-18T09:53:06.152Z,1.08
2023-07-18T09:55:35.460Z,0.93
2023-07-18T09:58:03.850Z,0.93
2023-07-18T10:00:31.509Z,1.00
2023-07-18T10:02:58.798Z,0.90
2023-07-18T10:05:26.846Z,1.08
2023-07-18T10:07:54.154Z,1.90
2023-07-18T10:10:21.201Z,1.33
2023-07-18T10:13:08.397Z,0.88
2023-07-18T10:16:14.316Z,1.35
2023-07-18T10:18:46.273Z,0.88
2023-07-18T10:21:33.767Z,0.90
2023-07-18T10:24:21.088Z,1.48
2023-07-18T10:27:00.021Z,0.88
2023-07-18T10:29:34.936Z,1.20
2023-07-18T10:32:02.113Z,1.00
2023-07-18T10:34:29.093Z,1.00
2023-07-18T10:36:59.014Z,1.10
2023-07-18T10:39:50.196Z,1.08
2023-07-18T10:42:26.700Z,1.17
2023-07-18T10:44:56.725Z,1.17
2023-07-18T10:47:24.254Z,1.00
2023-07-18T10:49:51.265Z,1.20
2023-07-18T10:52:19.048Z,0.95
2023-07-18T10:54:54.723Z,1.05
2023-07-18T10:57:34.322Z,0.88
2023-07-18T11:00:02.449Z,1.00
2023-07-18T11:02:45.964Z,1.00
2023-07-18T11:05:14.546Z,1.13
2023-07-18T11:07:49.304Z,1.02
2023-07-18T11:10:16.880Z,1.25
2023-07-18T11:12:44.218Z,1.00
2023-07-18T11:15:12.977Z,0.95
2023-07-18T11:17:40.241Z,1.10
2023-07-18T11:20:08.683Z,1.27
2023-07-18T11:22:36.175Z,1.10
2023-07-18T11:25:03.315Z,1.30
2023-07-18T11:27:32.674Z,1.20
2023-07-18T11:30:10.209Z,1.17
2023-07-18T11:32:40.307Z,1.20
2023-07-18T11:35:08.703Z,1.25
2023-07-18T11:37:43.178Z,1.40
2023-07-18T11:40:11.940Z,1.55
2023-07-18T11:42:46.300Z,1.30
2023-07-18T11:45:13.870Z,0.98
2023-07-18T11:47:45.554Z,1.17
2023-07-18T11:50:13.755Z,1.27
2023-07-18T11:52:48.316Z,1.08
2023-07-18T11:55:16.670Z,1.02
2023-07-18T11:57:44.820Z,1.30
2023-07-18T12:00:14.018Z,1.27
2023-07-18T12:02:41.643Z,1.52
2023-07-18T12:05:08.913Z,2.28
2023-07-18T12:07:36.350Z,1.13
2023-07-18T12:10:07.962Z,1.48
2023-07-18T12:12:35.613Z,1.20
2023-07-18T12:15:02.827Z,1.45
2023-07-18T12:17:29.837Z,1.50
2023-07-18T12:19:56.757Z,1.48
2023-07-18T12:22:23.724Z,1.48
2023-07-18T12:24:50.719Z,1.35
2023-07-18T12:27:17.831Z,1.48
2023-07-18T12:29:47.060Z,1.20
2023-07-18T12:32:16.677Z,1.30
2023-07-18T12:34:43.620Z,1.58
2023-07-18T12:37:10.512Z,1.10
2023-07-18T12:39:37.627Z,1.65
2023-07-18T12:42:04.850Z,1.50
2023-07-18T12:44:43.569Z,1.40
2023-07-18T12:47:11.168Z,1.15
2023-07-18T12:52:09.394Z,1.60
2023-07-18T12:54:36.343Z,1.30
2023-07-18T12:57:03.804Z,1.00
2023-07-18T12:59:30.724Z,1.50
2023-07-18T13:01:58.531Z,1.33
2023-07-18T13:04:25.756Z,1.70
2023-07-18T13:06:52.929Z,1.23
2023-07-18T13:09:21.809Z,1.40
2023-07-18T13:11:50.797Z,1.25
2023-07-18T13:14:21.188Z,1.58
2023-07-18T13:16:48.568Z,1.60
2023-07-18T13:19:15.885Z,1.52
2023-07-18T13:21:43.147Z,1.40
2023-07-18T13:24:10.750Z,1.40
2023-07-18T13:26:38.246Z,1.60
2023-07-18T13:29:05.182Z,1.50
2023-07-18T13:31:35.061Z,1.73
2023-07-18T13:34:03.308Z,1.65
2023-07-18T13:36:33.984Z,1.52
2023-07-18T13:39:01.185Z,1.63
2023-07-18T13:41:28.473Z,1.73
2023-07-18T13:43:55.387Z,1.77
2023-07-18T13:46:22.684Z,1.70
2023-07-18T13:48:49.844Z,1.73
2023-07-18T13:51:17.138Z,1.77
2023-07-18T13:53:44.099Z,1.55
2023-07-18T13:56:11.009Z,1.70
2023-07-18T13:58:37.970Z,1.40
2023-07-18T14:01:05.180Z,1.40
2023-07-18T14:03:35.365Z,1.40
2023-07-18T14:06:04.380Z,1.73
2023-07-18T14:08:32.277Z,1.70
2023-07-18T14:10:59.238Z,1.30
2023-07-18T14:13:27.471Z,1.80
2023-07-18T14:15:55.721Z,1.30
2023-07-18T14:18:22.815Z,1.52
2023-07-18T14:20:49.820Z,1.45
2023-07-18T14:23:17.997Z,1.60
2023-07-18T14:25:47.935Z,1.60
2023-07-18T14:28:16.202Z,1.60
2023-07-18T14:30:43.508Z,1.65
2023-07-18T14:33:14.957Z,1.63
2023-07-18T14:35:44.352Z,1.75
2023-07-18T14:38:12.701Z,1.40
2023-07-18T14:40:40.251Z,1.75
2023-07-18T14:43:12.059Z,1.70
2023-07-18T14:45:39.261Z,2.35
2023-07-18T14:48:07.321Z,1.58
2023-07-18T14:50:34.553Z,1.70
2023-07-18T14:53:01.995Z,1.67
2023-07-18T14:55:34.390Z,1.45
2023-07-18T14:58:01.885Z,1.48
2023-07-18T15:00:29.113Z,1.40
2023-07-18T15:02:56.745Z,1.40
2023-07-18T15:05:23.796Z,1.67
2023-07-18T15:07:50.807Z,1.60
2023-07-18T15:10:17.786Z,1.60
2023-07-18T15:12:46.416Z,1.63
2023-07-18T15:15:14.589Z,1.50
2023-07-18T15:17:47.607Z,1.50
2023-07-18T15:20:16.066Z,1.58
2023-07-18T15:22:43.856Z,1.80
2023-07-18T15:25:12.473Z,1.40
2023-07-18T15:27:41.505Z,1.35
2023-07-18T15:30:10.854Z,1.92
2023-07-18T15:32:40.111Z,1.80
2023-07-18T15:35:07.745Z,1.60
2023-07-18T15:37:35.175Z,1.45
2023-07-18T15:40:03.113Z,1.75
2023-07-18T15:42:31.130Z,1.40
2023-07-18T15:44:58.840Z,1.42
2023-07-18T15:47:26.025Z,1.60
2023-07-18T15:49:53.076Z,1.40
2023-07-18T15:52:20.070Z,1.48
2023-07-18T15:54:46.973Z,1.67
2023-07-18T15:57:14.277Z,2.05
2023-07-18T15:59:41.284Z,1.80
2023-07-18T16:02:08.318Z,1.60
2023-07-18T16:04:35.570Z,1.30
2023-07-18T16:07:03.377Z,1.50
2023-07-18T16:09:30.597Z,1.92
2023-07-18T16:11:58.357Z,1.42
2023-07-18T16:14:25.499Z,1.63
2023-07-18T16:16:54.641Z,1.42
2023-07-18T16:19:22.747Z,1.38
2023-07-18T16:21:50.751Z,1.60
2023-07-18T16:24:17.727Z,1.70
2023-07-18T16:26:44.925Z,1.42
2023-07-18T16:29:11.915Z,1.70
2023-07-18T16:31:39.113Z,1.60
2023-07-18T16:34:06.118Z,1.77
2023-07-18T16:36:33.217Z,1.60
2023-07-18T16:39:00.181Z,1.20
2023-07-18T16:41:27.217Z,1.38
2023-07-18T16:43:54.199Z,1.30
2023-07-18T16:46:22.303Z,1.40
2023-07-18T16:48:49.540Z,1.58
2023-07-18T16:51:17.624Z,1.40
2023-07-18T16:53:44.735Z,1.60
2023-07-18T16:56:12.808Z,1.52
2023-07-18T16:58:43.671Z,1.55
2023-07-18T17:01:16.965Z,1.42
2023-07-18T17:03:44.051Z,1.60
2023-07-18T17:06:11.165Z,1.70
2023-07-18T17:08:38.425Z,1.50
2023-07-18T17:11:06.545Z,1.75
2023-07-18T17:13:33.670Z,1.70
2023-07-18T17:16:01.122Z,1.63
2023-07-18T17:18:28.113Z,1.67
2023-07-18T17:20:55.134Z,1.45
2023-07-18T17:23:22.550Z,1.30
2023-07-18T17:25:51.147Z,1.48
2023-07-18T17:28:18.008Z,1.48
2023-07-18T17:30:44.960Z,1.42
2023-07-18T17:33:12.232Z,1.52
2023-07-18T17:35:39.786Z,1.60
2023-07-18T17:38:06.994Z,1.50
2023-07-18T17:40:33.891Z,1.70
2023-07-18T17:43:04.740Z,1.67
2023-07-18T17:45:31.934Z,1.45
2023-07-18T17:47:59.584Z,1.55
2023-07-18T17:50:26.654Z,1.70
2023-07-18T17:52:53.666Z,1.80
2023-07-18T17:55:21.123Z,1.40
2023-07-18T17:57:48.088Z,1.50
2023-07-18T18:00:15.331Z,1.50
2023-07-18T18:02:43.348Z,1.50
2023-07-18T18:05:45.447Z,1.50
2023-07-18T18:08:16.970Z,1.65
2023-07-18T18:13:11.508Z,1.40
2023-07-18T18:15:45.753Z,1.30
2023-07-18T18:18:29.673Z,1.75
2023-07-18T18:21:01.539Z,1.50
2023-07-18T18:23:38.790Z,1.45
2023-07-18T18:26:09.108Z,1.60
2023-07-18T18:28:36.426Z,1.40
2023-07-18T18:31:03.601Z,1.60
2023-07-18T18:33:31.719Z,1.27
2023-07-18T18:36:00.547Z,1.65
2023-07-18T18:38:28.244Z,1.60
2023-07-18T18:40:55.858Z,1.58
2023-07-18T18:43:22.829Z,1.33
2023-07-18T18:45:49.794Z,1.63
2023-07-18T18:48:16.790Z,1.73
2023-07-18T18:50:43.720Z,1.50
2023-07-18T18:53:10.712Z,1.30
2023-07-18T18:55:38.710Z,1.25
2023-07-18T18:58:06.009Z,1.35
2023-07-18T19:00:33.010Z,1.48
2023-07-18T19:03:00.190Z,1.45
2023-07-18T19:05:28.446Z,1.42
2023-07-18T19:07:55.785Z,1.65
2023-07-18T19:10:25.065Z,1.30
2023-07-18T19:12:52.064Z,1.52
2023-07-18T19:15:19.185Z,1.48
2023-07-18T19:17:46.249Z,1.58
2023-07-18T19:20:13.749Z,1.70
2023-07-18T19:22:40.860Z,1.40
2023-07-18T19:25:09.756Z,1.50
2023-07-18T19:27:37.432Z,1.25
2023-07-18T19:30:06.398Z,1.73
2023-07-18T19:32:33.774Z,1.42
2023-07-18T19:35:04.309Z,1.25
2023-07-18T19:37:31.473Z,1.45
2023-07-18T19:39:58.680Z,1.75
2023-07-18T19:42:25.764Z,1.55
2023-07-18T19:44:52.765Z,1.70
2023-07-18T19:47:19.686Z,1.50
2023-07-18T19:49:47.561Z,1.77
2023-07-18T19:52:15.452Z,1.98
2023-07-18T19:54:42.335Z,1.55
2023-07-18T19:57:09.321Z,1.65
2023-07-18T19:59:36.267Z,1.67
2023-07-18T20:02:03.372Z,2.15
2023-07-18T20:04:30.465Z,1.33
2023-07-18T20:07:00.166Z,2.20
2023-07-18T20:09:27.890Z,1.75
2023-07-18T20:11:57.745Z,1.70
2023-07-18T20:14:24.796Z,2.00
2023-07-18T20:16:52.525Z,1.70
2023-07-18T20:19:19.725Z,1.50
2023-07-18T20:21:47.885Z,1.40
2023-07-18T20:24:14.862Z,1.85
2023-07-18T20:26:43.915Z,1.88
2023-07-18T20:29:10.960Z,2.03
2023-07-18T20:31:38.173Z,1.60
2023-07-18T20:34:05.306Z,1.60
2023-07-18T20:36:32.239Z,1.50
2023-07-18T20:39:02.102Z,2.10
2023-07-18T20:41:32.144Z,1.75
2023-07-18T20:43:59.173Z,2.00
2023-07-18T20:46:26.223Z,1.83
2023-07-18T20:48:53.319Z,1.98
2023-07-18T20:51:20.534Z,2.00
2023-07-18T20:53:47.769Z,2.13
2023-07-18T20:56:14.773Z,2.03
2023-07-18T20:58:42.899Z,1.90
2023-07-18T21:01:10.603Z,2.15
2023-07-18T21:03:37.762Z,1.73
2023-07-18T21:06:06.628Z,1.60
2023-07-18T21:08:33.635Z,1.90
2023-07-18T21:11:00.551Z,2.60
2023-07-18T21:13:28.280Z,1.88
2023-07-18T21:15:55.520Z,1.67
2023-07-18T21:18:22.557Z,1.90
2023-07-18T21:20:49.701Z,2.00
2023-07-18T21:23:21.063Z,2.13
2023-07-18T21:25:48.885Z,1.90
2023-07-18T21:28:15.814Z,2.58
2023-07-18T21:30:42.712Z,2.38
2023-07-18T21:33:09.876Z,2.30
2023-07-18T21:35:36.917Z,2.50
2023-07-18T21:38:06.729Z,2.22
2023-07-18T21:40:33.890Z,2.40
2023-07-18T21:43:01.182Z,2.60
2023-07-18T21:45:28.227Z,1.95
2023-07-18T21:47:55.298Z,2.40
2023-07-18T21:50:24.440Z,1.95
2023-07-18T21:52:51.722Z,2.22
2023-07-18T21:55:18.721Z,2.55
2023-07-18T21:57:45.938Z,2.05
2023-07-18T22:00:15.753Z,2.22
2023-07-18T22:02:42.835Z,2.53
2023-07-18T22:05:10.543Z,1.83
2023-07-18T22:07:38.588Z,2.10
2023-07-18T22:10:09.680Z,1.70
2023-07-18T22:12:37.256Z,2.20
2023-07-18T22:15:04.812Z,2.47
2023-07-18T22:17:32.295Z,2.03
2023-07-18T22:19:59.864Z,1.88
2023-07-18T22:22:27.106Z,2.00
2023-07-18T22:24:54.172Z,2.20
2023-07-18T22:27:21.355Z,2.05
2023-07-18T22:29:48.241Z,2.45
2023-07-18T22:32:16.652Z,2.10
2023-07-18T22:34:45.040Z,1.98
2023-07-18T22:37:12.453Z,3.08
2023-07-18T22:39:41.107Z,2.60
2023-07-18T22:42:17.534Z,2.25
2023-07-18T22:44:45.671Z,2.78
2023-07-18T22:47:12.839Z,2.40
2023-07-18T22:49:41.786Z,2.17
2023-07-18T22:52:10.240Z,2.15
2023-07-18T22:54:37.537Z,2.42
2023-07-18T22:57:05.224Z,2.53
2023-07-18T22:59:32.858Z,2.00
2023-07-18T23:02:00.953Z,1.98
2023-07-18T23:04:29.264Z,2.72
2023-07-18T23:06:57.623Z,2.50
2023-07-18T23:09:25.076Z,2.28
2023-07-18T23:11:59.142Z,2.45
2023-07-18T23:14:27.637Z,2.28
2023-07-18T23:16:56.748Z,2.30
2023-07-18T23:19:23.911Z,2.33
2023-07-18T23:21:55.818Z,2.60
2023-07-18T23:24:22.723Z,2.50
2023-07-18T23:26:49.959Z,2.70
2023-07-18T23:29:16.995Z,3.00
2023-07-18T23:31:43.995Z,2.63
2023-07-18T23:34:12.120Z,2.58
2023-07-18T23:36:39.470Z,2.72
2023-07-18T23:39:07.481Z,2.55
2023-07-18T23:41:34.500Z,2.78
2023-07-18T23:44:01.543Z,3.47
2023-07-18T23:46:28.503Z,3.13
2023-07-18T23:48:55.595Z,2.83
2023-07-18T23:51:22.987Z,2.85
2023-07-18T23:53:50.209Z,2.83
2023-07-18T23:56:17.883Z,2.90
2023-07-18T23:58:44.742Z,2.88
